Flight Track Log - Related Links

Times and Time Zones

All times are in EDT time to prevent confusion due to time zone crossing. See the UAL4679 flight status page for this flight to view local times or setup timezone preferences in your user account.

Time Position Orientation Groundspeed Altitude Reporting Facility
EDT Latitude Longitude Course Direction KTS MPH feet Rate Location/Type
Sun 09:53:00 AM 44.3278 -73.1656 195° South 235 270 7,200  Level Boston Center
Sun 09:54:00 AM 44.1838 -73.2541 190° South  Level FlightAware Approximate
Sun 09:54:00 AM 44.2547 -73.1764 186° South 260 299 10,000  Level Boston Center
Sun 09:55:00 AM 44.1115 -73.2721 190° South  Level FlightAware Approximate
Sun 09:55:00 AM 44.1736 -73.1869 185° South 280 322 11,700  Level Boston Center
Sun 09:56:00 AM 44.0397 -73.2941 196° South  Level FlightAware Approximate
Sun 09:56:00 AM 44.0839 -73.1944 183° South 308 354 13,200  Level Boston Center
Sun 09:57:00 AM 43.9691 -73.3224 196° South  Level FlightAware Approximate
Sun 09:57:00 AM 43.9878 -73.2075 186° South 345 397 14,700  Level Boston Center
Sun 09:58:00 AM 43.8678 -73.4059 195° South  Level FlightAware Approximate
Sun 09:58:00 AM 43.9086 -73.2153 184° South 357 411 16,000  Level Boston Center
Sun 09:59:00 AM 43.7814 -73.2250 183° South 365 420 17,600 1,000 Climbing Boston Center
Sun 10:00:00 AM 43.6731 -73.2353 184° South 372 428 18,000 200 Climbing Boston Center
Sun 10:01:00 AM 43.5725 -73.3025 206° Southwest 387 445 18,000  Level Boston Center
Sun 10:02:00 AM 43.4719 -73.3842 211° Southwest 401 461 18,000  Level Boston Center
Sun 10:03:00 AM 43.3733 -73.4656 211° Southwest 418 481 18,000  Level Boston Center
Sun 10:04:00 AM 43.2786 -73.5467 212° Southwest 418 481 18,000  Level Boston Center
Sun 10:05:00 AM 43.1822 -73.6189 209° Southwest 403 464 18,000 -50 Level Boston Center
Sun 10:06:00 AM 43.0753 -73.6653 198° South 398 458 17,900 -400 Descending Boston Center
Sun 10:07:00 AM 42.9644 -73.7111 197° South 409 471 17,200 -850 Descending Boston Center
Sun 10:08:00 AM 42.8575 -73.7600 199° South 409 471 16,200 -600 Descending Boston Center
Sun 10:09:00 AM 42.7547 -73.8058 198° South 403 464 16,000 -100 Descending Boston Center
Sun 10:10:00 AM 42.6500 -73.8514 198° South 403 464 16,000 50 Level Boston Center
Sun 10:11:00 AM 42.5600 -73.8889 197° South 398 458 16,100 50 Climbing Boston Center
Sun 10:12:00 AM 42.4425 -73.9425 199° South 398 458 16,100  Level Boston Center
Sun 10:13:00 AM 42.3503 -73.9825 198° South 398 458 16,100  Level Boston Center
Sun 10:14:00 AM 42.2350 -74.0328 198° South 393 452 16,100 -100 Level Boston Center
Sun 10:15:00 AM 42.1428 -74.0753 199° South 393 452 15,900  Descending Boston Center
Sun 10:16:00 AM 42.0378 -74.1200 198° South 393 452 16,100 100 Climbing Boston Center
Sun 10:17:00 AM 41.9267 -74.1672 198° South 399 459 16,100 -100 Level Boston Center
Sun 10:18:00 AM 41.8300 -74.2092 198° South 399 459 15,900 -1,050 Descending Boston Center
Sun 10:19:00 AM 41.7231 -74.2564 198° South 382 440 14,000 -1,900 Descending Boston Center
Sun 10:20:00 AM 41.6433 -74.2931 199° South 362 417 12,100 -1,800 Descending Boston Center
Sun 10:21:00 AM 41.5550 -74.3319 198° South 329 379 10,400 -1,407 Descending Boston Center
Sun 10:23:29 AM 41.3667 -74.4000 195° South 280 322 7,200 -1,033 Descending New York TRACON
Sun 10:24:29 AM 41.3000 -74.3667 159° South 274 315 6,800 -550 Descending New York TRACON
Sun 10:25:29 AM 41.2333 -74.3167 151° Southeast 268 308 6,100 -800 Descending New York TRACON
Sun 10:26:29 AM 41.1667 -74.2667 151° Southeast 266 306 5,200 -500 Descending New York TRACON
Sun 10:27:29 AM 41.1000 -74.2333 159° South 265 305 5,100 -50 Descending New York TRACON
Sun 10:28:29 AM 41.0333 -74.1833 150° Southeast 242 278 5,100 -53 Level New York TRACON
Sun 10:29:23 AM 40.9833 -74.1500 153° Southeast 238 274 5,000 -550 Descending New York TRACON
Sun 10:30:29 AM 40.9333 -74.1000 143° Southeast 237 273 4,000 -950 Descending New York TRACON
Sun 10:31:23 AM 40.8667 -74.0667 159° South 232 267 3,100 -632 Descending New York TRACON
Sun 10:32:23 AM 40.8167 -74.0833 194° South 184 212 2,800 -300 Descending New York TRACON

Login

Don't have an account? Register now (free) for customized features, flight alerts, and more!